Rexmont, Pennsylvania
Current Conditions -  °F | °C
As of 3:53 AM on Friday 24 Oct 2014 (Local Time) from KLNS Reporting Station
Overcast Overcast  
Wind Chill: 56°   Ceiling: 3600
Heat Index: 56°   Visibility: 10mi
Dew Point: 43°   Wind: 12mph
Humidity: 62%   Direction: 330°NNW
Pressure: 29.88"   Gusts: NA
Location:  40.28°N, 76.38°W
Report Text: KLNS 240753Z AUTO 33010KT 10SM OVC036 13/06 A2988 RMK AO2 SLP116 T01330061
Loading
Personal Weather Stations






























Interactive Weather Map
Tropical Storm Tracking
New forecast layout! Learn more

10-Day Weather Forecast

Advertisements
Track Severe Weather on mobile